createdAt,value
2023-05-08T00:00:43.467Z,486.00
2023-05-08T00:01:43.455Z,483.00
2023-05-08T00:02:43.508Z,482.00
2023-05-08T00:03:43.596Z,481.00
2023-05-08T00:04:43.454Z,480.00
2023-05-08T00:05:43.440Z,482.00
2023-05-08T00:06:43.434Z,480.00
2023-05-08T00:07:43.456Z,481.00
2023-05-08T00:08:43.467Z,483.00
2023-05-08T00:09:43.436Z,484.00
2023-05-08T00:10:43.450Z,483.00
2023-05-08T00:11:43.484Z,483.00
2023-05-08T00:12:43.609Z,480.00
2023-05-08T00:13:43.443Z,481.00
2023-05-08T00:14:43.476Z,481.00
2023-05-08T00:15:43.466Z,480.00
2023-05-08T00:16:44.095Z,478.00
2023-05-08T00:17:43.553Z,479.00
2023-05-08T00:18:43.506Z,478.00
2023-05-08T00:19:43.489Z,477.00
2023-05-08T00:20:43.495Z,478.00
2023-05-08T00:21:43.488Z,477.00
2023-05-08T00:22:43.493Z,478.00
2023-05-08T00:23:43.510Z,480.00
2023-05-08T00:24:43.476Z,484.00
2023-05-08T00:25:43.449Z,485.00
2023-05-08T00:26:43.589Z,481.00
2023-05-08T00:27:43.459Z,480.00
2023-05-08T00:28:43.508Z,480.00
2023-05-08T00:29:43.450Z,482.00
2023-05-08T00:30:43.463Z,480.00
2023-05-08T00:31:43.531Z,478.00
2023-05-08T00:32:43.514Z,477.00
2023-05-08T00:33:43.491Z,478.00
2023-05-08T00:34:43.463Z,477.00
2023-05-08T00:35:43.449Z,479.00
2023-05-08T00:36:43.491Z,478.00
2023-05-08T00:37:43.501Z,479.00
2023-05-08T00:38:43.529Z,477.00
2023-05-08T00:39:43.497Z,477.00
2023-05-08T00:40:43.533Z,475.00
2023-05-08T00:41:43.504Z,476.00
2023-05-08T00:42:43.521Z,477.00
2023-05-08T00:43:43.550Z,480.00
2023-05-08T00:44:43.614Z,479.00
2023-05-08T00:45:43.563Z,475.00
2023-05-08T00:46:43.648Z,475.00
2023-05-08T00:47:43.640Z,478.00
2023-05-08T00:48:43.578Z,477.00
2023-05-08T00:49:43.600Z,479.00
2023-05-08T00:50:43.578Z,478.00
2023-05-08T00:51:43.595Z,477.00
2023-05-08T00:52:43.607Z,479.00
2023-05-08T00:53:43.568Z,479.00
2023-05-08T00:54:43.569Z,479.00
2023-05-08T00:55:43.599Z,478.00
2023-05-08T00:56:43.598Z,476.00
2023-05-08T00:57:43.575Z,469.00
2023-05-08T00:58:43.610Z,472.00
2023-05-08T00:59:43.615Z,473.00
2023-05-08T01:00:43.616Z,472.00
2023-05-08T01:01:43.671Z,469.00
2023-05-08T01:02:43.634Z,471.00
2023-05-08T01:03:43.766Z,475.00
2023-05-08T01:04:43.651Z,474.00
2023-05-08T01:05:43.662Z,476.00
2023-05-08T01:06:43.674Z,474.00
2023-05-08T01:07:43.679Z,477.00
2023-05-08T01:08:43.652Z,478.00
2023-05-08T01:09:43.640Z,478.00
2023-05-08T01:10:43.667Z,479.00
2023-05-08T01:11:44.085Z,480.00
2023-05-08T01:12:43.729Z,478.00
2023-05-08T01:13:43.709Z,479.00
2023-05-08T01:14:43.693Z,481.00
2023-05-08T01:15:43.805Z,478.00
2023-05-08T01:16:43.744Z,481.00
2023-05-08T01:17:43.806Z,479.00
2023-05-08T01:18:43.736Z,476.00
2023-05-08T01:19:43.765Z,476.00
2023-05-08T01:20:43.768Z,474.00
2023-05-08T01:21:43.785Z,477.00
2023-05-08T01:22:43.772Z,477.00
2023-05-08T01:23:43.788Z,474.00
2023-05-08T01:24:43.796Z,475.00
2023-05-08T01:25:43.815Z,472.00
2023-05-08T01:26:43.831Z,473.00
2023-05-08T01:27:43.825Z,472.00
2023-05-08T01:28:43.810Z,470.00
2023-05-08T01:29:43.833Z,470.00
2023-05-08T01:30:43.903Z,469.00
2023-05-08T01:31:43.844Z,469.00
2023-05-08T01:32:43.865Z,468.00
2023-05-08T01:33:43.915Z,469.00
2023-05-08T01:34:43.875Z,469.00
2023-05-08T01:35:43.860Z,471.00
2023-05-08T01:36:43.866Z,472.00
2023-05-08T01:37:43.896Z,472.00
2023-05-08T01:38:43.888Z,473.00
2023-05-08T01:39:43.900Z,475.00
2023-05-08T01:40:43.885Z,476.00
2023-05-08T01:41:43.912Z,474.00
2023-05-08T01:42:43.906Z,477.00
2023-05-08T01:43:43.895Z,477.00
2023-05-08T01:44:43.937Z,479.00
2023-05-08T01:45:43.951Z,477.00
2023-05-08T01:46:43.991Z,476.00
2023-05-08T01:47:44.001Z,475.00
2023-05-08T01:48:43.989Z,474.00
2023-05-08T01:49:43.968Z,475.00
2023-05-08T01:50:43.987Z,475.00
2023-05-08T01:51:43.994Z,476.00
2023-05-08T01:52:44.021Z,475.00
2023-05-08T01:53:43.976Z,474.00
2023-05-08T01:54:44.018Z,468.00
2023-05-08T01:55:44.031Z,468.00
2023-05-08T01:56:44.060Z,469.00
2023-05-08T01:57:44.046Z,472.00
2023-05-08T01:58:44.032Z,474.00
2023-05-08T01:59:44.072Z,473.00
2023-05-08T02:00:44.113Z,469.00
2023-05-08T02:01:44.153Z,473.00
2023-05-08T02:02:44.188Z,476.00
2023-05-08T02:03:44.225Z,475.00
2023-05-08T02:04:44.152Z,475.00
2023-05-08T02:05:44.194Z,475.00
2023-05-08T02:06:44.194Z,475.00
2023-05-08T02:07:44.174Z,471.00
2023-05-08T02:08:44.219Z,470.00
2023-05-08T02:09:44.222Z,473.00
2023-05-08T02:10:44.244Z,477.00
2023-05-08T02:11:44.262Z,478.00
2023-05-08T02:12:44.302Z,478.00
2023-05-08T02:13:44.283Z,481.00
2023-05-08T02:14:44.324Z,480.00
2023-05-08T02:15:44.299Z,480.00
2023-05-08T02:16:44.418Z,480.00
2023-05-08T02:17:44.379Z,481.00
2023-05-08T02:18:44.305Z,481.00
2023-05-08T02:19:44.347Z,481.00
2023-05-08T02:20:44.373Z,482.00
2023-05-08T02:21:44.369Z,482.00
2023-05-08T02:22:44.375Z,482.00
2023-05-08T02:23:44.397Z,483.00
2023-05-08T02:24:44.392Z,482.00
2023-05-08T02:25:44.383Z,483.00
2023-05-08T02:26:44.438Z,481.00
2023-05-08T02:27:44.455Z,480.00
2023-05-08T02:28:44.458Z,479.00
2023-05-08T02:29:44.464Z,473.00
2023-05-08T02:30:44.471Z,477.00
2023-05-08T02:31:44.481Z,483.00
2023-05-08T02:32:44.580Z,482.00
2023-05-08T02:33:44.491Z,484.00
2023-05-08T02:34:54.924Z,484.00
2023-05-08T02:35:45.542Z,482.00
2023-05-08T02:36:44.506Z,481.00
2023-05-08T02:37:44.480Z,481.00
2023-05-08T02:38:44.504Z,480.00
2023-05-08T02:39:44.450Z,481.00
2023-05-08T02:40:44.504Z,479.00
2023-05-08T02:41:44.492Z,474.00
2023-05-08T02:42:44.453Z,475.00
2023-05-08T02:43:44.473Z,476.00
2023-05-08T02:44:44.461Z,478.00
2023-05-08T02:45:44.463Z,472.00
2023-05-08T02:46:44.606Z,470.00
2023-05-08T02:47:44.489Z,472.00
2023-05-08T02:48:44.425Z,470.00
2023-05-08T02:49:44.419Z,472.00
2023-05-08T02:50:44.403Z,472.00
2023-05-08T02:51:44.417Z,470.00
2023-05-08T02:52:44.358Z,471.00
2023-05-08T02:53:44.379Z,471.00
2023-05-08T02:54:44.402Z,471.00
2023-05-08T02:55:44.374Z,471.00
2023-05-08T02:56:44.643Z,470.00
2023-05-08T02:57:44.342Z,468.00
2023-05-08T02:58:44.357Z,467.00
2023-05-08T02:59:44.363Z,466.00
2023-05-08T03:00:44.315Z,468.00
2023-05-08T03:01:44.349Z,469.00
2023-05-08T03:02:44.399Z,469.00
2023-05-08T03:03:44.417Z,468.00
2023-05-08T03:04:44.298Z,467.00
2023-05-08T03:05:44.300Z,466.00
2023-05-08T03:06:44.311Z,466.00
2023-05-08T03:07:44.306Z,465.00
2023-05-08T03:08:44.312Z,465.00
2023-05-08T03:09:44.380Z,466.00
2023-05-08T03:10:44.347Z,463.00
2023-05-08T03:11:44.396Z,460.00
2023-05-08T03:12:44.440Z,462.00
2023-05-08T03:13:44.386Z,466.00
2023-05-08T03:14:44.428Z,467.00
2023-05-08T03:15:44.490Z,464.00
2023-05-08T03:16:44.471Z,466.00
2023-05-08T03:17:44.498Z,466.00
2023-05-08T03:18:44.495Z,468.00
2023-05-08T03:19:44.491Z,469.00
2023-05-08T03:20:44.504Z,470.00
2023-05-08T03:21:44.619Z,471.00
2023-05-08T03:22:44.530Z,467.00
2023-05-08T03:23:44.569Z,464.00
2023-05-08T03:24:44.589Z,462.00
2023-05-08T03:25:44.609Z,464.00
2023-05-08T03:26:44.597Z,465.00
2023-05-08T03:27:44.595Z,464.00
2023-05-08T03:28:44.607Z,467.00
2023-05-08T03:29:44.660Z,473.00
2023-05-08T03:30:44.676Z,470.00
2023-05-08T03:31:44.791Z,467.00
2023-05-08T03:32:44.706Z,466.00
2023-05-08T03:33:44.702Z,462.00
2023-05-08T03:34:44.694Z,464.00
2023-05-08T03:35:44.717Z,467.00
2023-05-08T03:36:44.765Z,469.00
2023-05-08T03:37:44.755Z,468.00
2023-05-08T03:38:44.773Z,471.00
2023-05-08T03:39:44.825Z,471.00
2023-05-08T03:40:44.841Z,468.00
2023-05-08T03:41:45.183Z,467.00
2023-05-08T03:42:44.868Z,466.00
2023-05-08T03:43:44.867Z,465.00
2023-05-08T03:44:44.881Z,466.00
2023-05-08T03:45:44.941Z,465.00
2023-05-08T03:46:44.951Z,465.00
2023-05-08T03:47:44.976Z,465.00
2023-05-08T03:48:44.940Z,465.00
2023-05-08T03:49:44.970Z,464.00
2023-05-08T03:50:45.029Z,465.00
2023-05-08T03:51:45.091Z,461.00
2023-05-08T03:52:45.054Z,460.00
2023-05-08T03:53:45.085Z,460.00
2023-05-08T03:54:45.065Z,460.00
2023-05-08T03:55:45.102Z,461.00
2023-05-08T03:56:45.105Z,463.00
2023-05-08T03:57:45.114Z,465.00
2023-05-08T03:58:45.128Z,460.00
2023-05-08T03:59:45.163Z,460.00
2023-05-08T04:00:45.195Z,460.00
2023-05-08T04:01:45.240Z,458.00
2023-05-08T04:02:45.187Z,462.00
2023-05-08T04:03:45.252Z,462.00
2023-05-08T04:04:45.234Z,465.00
2023-05-08T04:05:45.242Z,462.00
2023-05-08T04:06:50.141Z,465.00
2023-05-08T04:07:46.245Z,466.00
2023-05-08T04:08:45.253Z,469.00
2023-05-08T04:09:45.258Z,467.00
2023-05-08T04:10:45.269Z,463.00
2023-05-08T04:11:45.252Z,461.00
2023-05-08T04:12:45.237Z,461.00
2023-05-08T04:13:45.236Z,460.00
2023-05-08T04:14:45.243Z,460.00
2023-05-08T04:15:45.195Z,460.00
2023-05-08T04:16:45.252Z,461.00
2023-05-08T04:17:45.180Z,464.00
2023-05-08T04:18:45.162Z,463.00
2023-05-08T04:19:45.180Z,464.00
2023-05-08T04:20:46.229Z,466.00
2023-05-08T04:21:45.185Z,468.00
2023-05-08T04:22:45.162Z,464.00
2023-05-08T04:23:45.130Z,466.00
2023-05-08T04:24:45.098Z,466.00
2023-05-08T04:25:45.124Z,465.00
2023-05-08T04:26:45.110Z,466.00
2023-05-08T04:27:45.168Z,464.00
2023-05-08T04:28:45.104Z,465.00
2023-05-08T04:29:45.089Z,464.00
2023-05-08T04:30:45.077Z,459.00
2023-05-08T04:31:45.117Z,458.00
2023-05-08T04:32:46.754Z,458.00
2023-05-08T04:33:45.187Z,459.00
2023-05-08T04:34:45.177Z,458.00
2023-05-08T04:35:45.204Z,458.00
2023-05-08T04:36:45.211Z,456.00
2023-05-08T04:37:45.265Z,452.00
2023-05-08T04:38:45.265Z,454.00
2023-05-08T04:39:45.262Z,451.00
2023-05-08T04:40:45.276Z,450.00
2023-05-08T04:41:45.399Z,452.00
2023-05-08T04:42:45.328Z,456.00
2023-05-08T04:43:45.367Z,455.00
2023-05-08T04:44:45.362Z,456.00
2023-05-08T04:45:45.455Z,452.00
2023-05-08T04:46:45.416Z,455.00
2023-05-08T04:47:45.576Z,455.00
2023-05-08T04:48:45.474Z,457.00
2023-05-08T04:49:45.558Z,458.00
2023-05-08T04:50:45.507Z,458.00
2023-05-08T04:51:45.561Z,458.00
2023-05-08T04:52:45.569Z,459.00
2023-05-08T04:53:45.607Z,460.00
2023-05-08T04:54:45.624Z,461.00
2023-05-08T04:55:45.664Z,459.00
2023-05-08T04:56:45.672Z,458.00
2023-05-08T04:57:46.151Z,458.00
2023-05-08T04:58:45.751Z,461.00
2023-05-08T04:59:45.758Z,458.00
2023-05-08T05:00:45.782Z,458.00
2023-05-08T05:01:45.881Z,459.00
2023-05-08T05:02:45.874Z,461.00
2023-05-08T05:03:45.915Z,460.00
2023-05-08T05:04:45.968Z,462.00
2023-05-08T05:05:46.021Z,463.00
2023-05-08T05:06:46.062Z,466.00
2023-05-08T05:07:46.095Z,465.00
2023-05-08T05:08:46.135Z,467.00
2023-05-08T05:09:46.153Z,468.00
2023-05-08T05:10:46.259Z,466.00
2023-05-08T05:11:46.298Z,467.00
2023-05-08T05:12:46.762Z,469.00
2023-05-08T05:13:46.443Z,470.00
2023-05-08T05:14:46.464Z,470.00
2023-05-08T05:15:46.646Z,472.00
2023-05-08T05:16:46.650Z,472.00
2023-05-08T05:17:46.694Z,473.00
2023-05-08T05:18:46.712Z,531.00
2023-05-08T05:19:46.734Z,505.00
2023-05-08T05:20:46.794Z,503.00
2023-05-08T05:21:46.896Z,498.00
2023-05-08T05:22:46.930Z,497.00
2023-05-08T05:23:46.933Z,495.00
2023-05-08T05:24:47.034Z,493.00
2023-05-08T05:25:47.061Z,532.00
2023-05-08T05:26:47.150Z,527.00
2023-05-08T05:27:47.161Z,521.00
2023-05-08T05:28:47.211Z,520.00
2023-05-08T05:29:47.233Z,520.00
2023-05-08T05:30:47.294Z,520.00
2023-05-08T05:31:47.340Z,519.00
2023-05-08T05:32:47.475Z,518.00
2023-05-08T05:33:47.458Z,517.00
2023-05-08T05:34:47.476Z,517.00
2023-05-08T05:35:47.524Z,515.00
2023-05-08T05:36:47.572Z,514.00
2023-05-08T05:37:47.624Z,515.00
2023-05-08T05:38:47.641Z,517.00
2023-05-08T05:39:47.714Z,516.00
2023-05-08T05:40:47.752Z,517.00
2023-05-08T05:41:47.809Z,515.00
2023-05-08T05:42:47.878Z,515.00
2023-05-08T05:43:47.913Z,514.00
2023-05-08T05:44:47.992Z,512.00
2023-05-08T05:45:48.091Z,513.00
2023-05-08T05:46:48.152Z,554.00
2023-05-08T05:47:48.187Z,565.00
2023-05-08T05:48:48.230Z,565.00
2023-05-08T05:49:48.329Z,573.00
2023-05-08T05:50:48.352Z,576.00
2023-05-08T05:51:48.420Z,581.00
2023-05-08T05:52:48.502Z,590.00
2023-05-08T05:53:48.487Z,633.00
2023-05-08T05:54:48.942Z,628.00
2023-05-08T05:55:48.585Z,625.00
2023-05-08T05:56:48.623Z,630.00
2023-05-08T05:57:48.697Z,635.00
2023-05-08T05:58:48.736Z,635.00
2023-05-08T05:59:48.813Z,630.00
2023-05-08T06:00:48.836Z,626.00
2023-05-08T06:01:48.892Z,623.00
2023-05-08T06:02:49.158Z,619.00
2023-05-08T06:03:49.074Z,615.00
2023-05-08T06:04:48.984Z,609.00
2023-05-08T06:05:49.028Z,604.00
2023-05-08T06:06:49.115Z,600.00
2023-05-08T06:07:49.180Z,595.00
2023-05-08T06:08:49.218Z,592.00
2023-05-08T06:09:49.311Z,591.00
2023-05-08T06:10:49.315Z,584.00
2023-05-08T06:11:49.374Z,582.00
2023-05-08T06:12:49.471Z,579.00
2023-05-08T06:13:50.713Z,576.00
2023-05-08T06:14:49.567Z,572.00
2023-05-08T06:15:49.608Z,568.00
2023-05-08T06:16:49.680Z,563.00
2023-05-08T06:17:49.739Z,560.00
2023-05-08T06:18:49.782Z,555.00
2023-05-08T06:19:49.834Z,547.00
2023-05-08T06:20:49.871Z,543.00
2023-05-08T06:21:49.950Z,541.00
2023-05-08T06:22:50.175Z,535.00
2023-05-08T06:23:50.067Z,534.00
2023-05-08T06:24:50.139Z,532.00
2023-05-08T06:25:50.217Z,533.00
2023-05-08T06:26:50.224Z,530.00
2023-05-08T06:27:50.332Z,528.00
2023-05-08T06:28:50.343Z,529.00
2023-05-08T06:29:50.411Z,529.00
2023-05-08T06:30:50.474Z,528.00
2023-05-08T06:31:50.516Z,528.00
2023-05-08T06:32:50.746Z,526.00
2023-05-08T06:33:50.635Z,524.00
2023-05-08T06:34:50.683Z,523.00
2023-05-08T06:35:50.739Z,523.00
2023-05-08T06:36:50.819Z,520.00
2023-05-08T06:37:51.234Z,518.00
2023-05-08T06:38:50.900Z,513.00
2023-05-08T06:40:00.330Z,512.00
2023-05-08T06:40:51.938Z,515.00
2023-05-08T06:41:50.916Z,512.00
2023-05-08T06:42:51.357Z,511.00
2023-05-08T06:43:50.893Z,511.00
2023-05-08T06:44:50.894Z,509.00
2023-05-08T06:45:50.976Z,507.00
2023-05-08T06:46:51.030Z,507.00
2023-05-08T06:47:50.913Z,509.00
2023-05-08T06:48:50.902Z,507.00
2023-05-08T06:49:50.880Z,508.00
2023-05-08T06:50:50.884Z,506.00
2023-05-08T06:51:50.958Z,505.00
2023-05-08T06:52:50.986Z,507.00
2023-05-08T06:53:51.088Z,638.00
2023-05-08T06:54:51.104Z,645.00
2023-05-08T06:55:51.202Z,785.00
2023-05-08T06:56:51.238Z,773.00
2023-05-08T06:57:51.716Z,845.00
2023-05-08T06:59:04.550Z,859.00
2023-05-08T06:59:52.310Z,897.00
2023-05-08T07:00:51.255Z,915.00
2023-05-08T07:01:51.256Z,940.00
2023-05-08T07:02:51.788Z,971.00
2023-05-08T07:03:51.212Z,1013.00
2023-05-08T07:04:51.228Z,1067.00
2023-05-08T07:05:51.208Z,1074.00
2023-05-08T07:06:51.197Z,1090.00
2023-05-08T07:07:51.243Z,1102.00
2023-05-08T07:08:51.198Z,1117.00
2023-05-08T07:09:52.239Z,1128.00
2023-05-08T07:10:51.264Z,1173.00
2023-05-08T07:11:51.186Z,1184.00
2023-05-08T07:12:51.235Z,1184.00
2023-05-08T07:13:51.178Z,1181.00
2023-05-08T07:14:51.206Z,1188.00
2023-05-08T07:15:51.222Z,1215.00
2023-05-08T07:16:51.210Z,1212.00
2023-05-08T07:17:51.273Z,1213.00
2023-05-08T07:18:51.213Z,1219.00
2023-05-08T07:19:51.201Z,1216.00
2023-05-08T07:20:51.152Z,1222.00
2023-05-08T07:21:51.173Z,1229.00
2023-05-08T07:22:51.244Z,1233.00
2023-05-08T07:23:51.155Z,1234.00
2023-05-08T07:24:51.197Z,1253.00
2023-05-08T07:25:51.263Z,1270.00
2023-05-08T07:26:51.325Z,1358.00
2023-05-08T07:27:51.402Z,1343.00
2023-05-08T07:28:51.330Z,1323.00
2023-05-08T07:29:51.321Z,1314.00
2023-05-08T07:30:51.337Z,1329.00
2023-05-08T07:31:51.566Z,1321.00
2023-05-08T07:32:51.510Z,1314.00
2023-05-08T07:33:51.405Z,1317.00
2023-05-08T07:34:51.434Z,1316.00
2023-05-08T07:35:51.431Z,1320.00
2023-05-08T07:36:51.473Z,1325.00
2023-05-08T07:37:51.469Z,1320.00
2023-05-08T07:38:51.496Z,1328.00
2023-05-08T07:39:51.494Z,1322.00
2023-05-08T07:40:51.556Z,1303.00
2023-05-08T07:41:51.658Z,1313.00
2023-05-08T07:42:51.691Z,1343.00
2023-05-08T07:43:51.679Z,1351.00
2023-05-08T07:44:54.797Z,1346.00
2023-05-08T07:45:51.730Z,1343.00
2023-05-08T07:46:51.755Z,1344.00
2023-05-08T07:47:51.744Z,1362.00
2023-05-08T07:48:51.727Z,1347.00
2023-05-08T07:49:51.738Z,1354.00
2023-05-08T07:50:51.660Z,1356.00
2023-05-08T07:51:51.677Z,1379.00
2023-05-08T07:52:51.671Z,1435.00
2023-05-08T07:53:51.634Z,1486.00
2023-05-08T07:54:51.658Z,1482.00
2023-05-08T07:55:51.631Z,1353.00
2023-05-08T07:56:51.670Z,996.00
2023-05-08T07:57:51.627Z,1085.00
2023-05-08T07:58:51.622Z,871.00
2023-05-08T07:59:51.639Z,769.00
2023-05-08T08:00:51.630Z,749.00
2023-05-08T08:01:51.664Z,747.00
2023-05-08T08:02:51.848Z,713.00
2023-05-08T08:03:51.685Z,804.00
2023-05-08T08:04:51.561Z,845.00
2023-05-08T08:05:51.575Z,909.00
2023-05-08T08:06:51.562Z,930.00
2023-05-08T08:07:51.585Z,939.00
2023-05-08T08:08:51.553Z,952.00
2023-05-08T08:09:51.529Z,969.00
2023-05-08T08:10:52.235Z,989.00
2023-05-08T08:11:51.575Z,1012.00
2023-05-08T08:12:51.824Z,1053.00
2023-05-08T08:13:51.483Z,1065.00
2023-05-08T08:14:51.492Z,1098.00
2023-05-08T08:15:51.550Z,1120.00
2023-05-08T08:16:51.556Z,1133.00
2023-05-08T08:17:51.796Z,1150.00
2023-05-08T08:18:51.580Z,1159.00
2023-05-08T08:19:51.489Z,1171.00
2023-05-08T08:20:51.436Z,1176.00
2023-05-08T08:21:51.511Z,1183.00
2023-05-08T08:22:51.743Z,1184.00
2023-05-08T08:23:51.451Z,1187.00
2023-05-08T08:24:54.075Z,1071.00
2023-05-08T08:25:51.468Z,1109.00
2023-05-08T08:26:51.465Z,1135.00
2023-05-08T08:27:51.464Z,1151.00
2023-05-08T08:28:51.429Z,1159.00
2023-05-08T08:29:58.508Z,1168.00
2023-05-08T08:30:52.473Z,1172.00
2023-05-08T08:31:51.387Z,1168.00
2023-05-08T08:32:51.406Z,1170.00
2023-05-08T08:33:51.370Z,1177.00
2023-05-08T08:34:51.475Z,1180.00
2023-05-08T08:35:51.359Z,1186.00
2023-05-08T08:36:51.348Z,1189.00
2023-05-08T08:37:51.362Z,1191.00
2023-05-08T08:38:51.364Z,1200.00
2023-05-08T08:39:51.300Z,1204.00
2023-05-08T08:40:51.356Z,1207.00
2023-05-08T08:41:51.313Z,1246.00
2023-05-08T08:42:51.334Z,1237.00
2023-05-08T08:43:51.298Z,1234.00
2023-05-08T08:44:51.296Z,1242.00
2023-05-08T08:45:51.351Z,1295.00
2023-05-08T08:46:51.386Z,1357.00
2023-05-08T08:47:51.317Z,1309.00
2023-05-08T08:48:51.272Z,1292.00
2023-05-08T08:49:51.263Z,1288.00
2023-05-08T08:50:51.333Z,1331.00
2023-05-08T08:51:51.211Z,1354.00
2023-05-08T08:52:51.228Z,1356.00
2023-05-08T08:53:51.230Z,1409.00
2023-05-08T08:54:51.253Z,1434.00
2023-05-08T08:55:51.210Z,1398.00
2023-05-08T08:56:51.247Z,1375.00
2023-05-08T08:57:51.188Z,1372.00
2023-05-08T08:58:51.162Z,1310.00
2023-05-08T08:59:51.198Z,1226.00
2023-05-08T09:00:51.204Z,1239.00
2023-05-08T09:01:51.255Z,1238.00
2023-05-08T09:02:51.436Z,1239.00
2023-05-08T09:03:51.395Z,1233.00
2023-05-08T09:04:51.285Z,1054.00
2023-05-08T09:05:51.280Z,1042.00
2023-05-08T09:06:51.485Z,1052.00
2023-05-08T09:07:51.426Z,1048.00
2023-05-08T09:08:51.438Z,1040.00
2023-05-08T09:09:51.501Z,1046.00
2023-05-08T09:10:51.490Z,1037.00
2023-05-08T09:11:51.520Z,1004.00
2023-05-08T09:12:51.590Z,976.00
2023-05-08T09:13:51.556Z,988.00
2023-05-08T09:14:51.597Z,957.00
2023-05-08T09:15:51.615Z,988.00
2023-05-08T09:16:51.653Z,913.00
2023-05-08T09:17:51.672Z,943.00
2023-05-08T09:18:51.689Z,962.00
2023-05-08T09:19:51.728Z,983.00
2023-05-08T09:20:51.703Z,1000.00
2023-05-08T09:21:51.715Z,997.00
2023-05-08T09:22:51.829Z,1004.00
2023-05-08T09:23:51.757Z,1003.00
2023-05-08T09:24:51.754Z,1019.00
2023-05-08T09:25:51.794Z,1034.00
2023-05-08T09:26:51.804Z,1041.00
2023-05-08T09:27:52.238Z,1077.00
2023-05-08T09:28:51.830Z,956.00
2023-05-08T09:29:51.834Z,1041.00
2023-05-08T09:30:51.852Z,1070.00
2023-05-08T09:31:51.919Z,1081.00
2023-05-08T09:32:51.949Z,1082.00
2023-05-08T09:33:51.895Z,1105.00
2023-05-08T09:34:51.872Z,1070.00
2023-05-08T09:35:51.857Z,1064.00
2023-05-08T09:36:51.895Z,1071.00
2023-05-08T09:37:51.900Z,1075.00
2023-05-08T09:38:51.986Z,1090.00
2023-05-08T09:39:51.918Z,1104.00
2023-05-08T09:40:51.922Z,1116.00
2023-05-08T09:41:51.922Z,1151.00
2023-05-08T09:42:51.921Z,1168.00
2023-05-08T09:43:52.275Z,1176.00
2023-05-08T09:44:52.051Z,1193.00
2023-05-08T09:45:52.124Z,1201.00
2023-05-08T09:46:52.048Z,1253.00
2023-05-08T09:47:52.136Z,1267.00
2023-05-08T09:48:52.169Z,1309.00
2023-05-08T09:49:52.189Z,1312.00
2023-05-08T09:50:52.242Z,1131.00
2023-05-08T09:51:52.327Z,1178.00
2023-05-08T09:52:52.395Z,1127.00
2023-05-08T09:53:52.766Z,1209.00
2023-05-08T09:54:52.470Z,1209.00
2023-05-08T09:55:52.435Z,1033.00
2023-05-08T09:56:52.456Z,1147.00
2023-05-08T09:57:52.550Z,1142.00
2023-05-08T09:58:52.569Z,1140.00
2023-05-08T09:59:52.605Z,1122.00
2023-05-08T10:00:52.682Z,1122.00
2023-05-08T10:01:52.590Z,1111.00
2023-05-08T10:02:52.646Z,1099.00
2023-05-08T10:03:52.813Z,1091.00
2023-05-08T10:04:52.659Z,1081.00
2023-05-08T10:05:52.617Z,1078.00
2023-05-08T10:06:54.037Z,1072.00
2023-05-08T10:07:52.631Z,1066.00
2023-05-08T10:08:52.633Z,1054.00
2023-05-08T10:09:52.653Z,1043.00
2023-05-08T10:10:52.702Z,1039.00
2023-05-08T10:11:52.581Z,1028.00
2023-05-08T10:12:52.607Z,1020.00
2023-05-08T10:13:52.599Z,1012.00
2023-05-08T10:14:59.558Z,1005.00
2023-05-08T10:15:52.576Z,999.00
2023-05-08T10:16:52.642Z,990.00
2023-05-08T10:17:52.596Z,982.00
2023-05-08T10:18:52.574Z,978.00
2023-05-08T10:19:52.537Z,970.00
2023-05-08T10:20:52.550Z,965.00
2023-05-08T10:21:52.518Z,958.00
2023-05-08T10:22:52.518Z,954.00
2023-05-08T10:23:52.509Z,958.00
2023-05-08T10:24:52.526Z,954.00
2023-05-08T10:25:54.797Z,950.00
2023-05-08T10:27:05.689Z,952.00
2023-05-08T10:27:53.609Z,952.00
2023-05-08T10:28:52.572Z,952.00
2023-05-08T10:29:52.646Z,952.00
2023-05-08T10:30:53.578Z,945.00
2023-05-08T10:31:52.575Z,950.00
2023-05-08T10:32:52.576Z,952.00
2023-05-08T10:33:52.558Z,957.00
2023-05-08T10:34:52.536Z,949.00
2023-05-08T10:35:52.524Z,946.00
2023-05-08T10:36:54.220Z,944.00
2023-05-08T10:37:52.521Z,945.00
2023-05-08T10:38:52.791Z,950.00
2023-05-08T10:39:52.575Z,959.00
2023-05-08T10:40:52.589Z,967.00
2023-05-08T10:41:52.621Z,972.00
2023-05-08T10:42:52.813Z,988.00
2023-05-08T10:43:52.768Z,979.00
2023-05-08T10:44:52.783Z,941.00
2023-05-08T10:45:52.877Z,926.00
2023-05-08T10:46:52.865Z,901.00
2023-05-08T10:47:52.995Z,887.00
2023-05-08T10:48:52.936Z,882.00
2023-05-08T10:49:52.971Z,868.00
2023-05-08T10:50:53.012Z,849.00
2023-05-08T10:51:53.022Z,831.00
2023-05-08T10:52:53.034Z,810.00
2023-05-08T10:53:53.291Z,798.00
2023-05-08T10:54:53.040Z,786.00
2023-05-08T10:55:53.060Z,774.00
2023-05-08T10:56:53.062Z,770.00
2023-05-08T10:57:53.045Z,763.00
2023-05-08T10:58:53.068Z,741.00
2023-05-08T10:59:53.158Z,735.00
2023-05-08T11:00:53.168Z,728.00
2023-05-08T11:01:53.350Z,721.00
2023-05-08T11:02:53.294Z,710.00
2023-05-08T11:03:53.398Z,706.00
2023-05-08T11:04:53.257Z,696.00
2023-05-08T11:05:53.265Z,683.00
2023-05-08T11:06:53.347Z,676.00
2023-05-08T11:07:53.316Z,663.00
2023-05-08T11:08:53.345Z,656.00
2023-05-08T11:09:53.366Z,650.00
2023-05-08T11:10:53.370Z,636.00
2023-05-08T11:11:53.370Z,626.00
2023-05-08T11:12:53.493Z,617.00
2023-05-08T11:13:53.490Z,612.00
2023-05-08T11:14:53.485Z,607.00
2023-05-08T11:15:53.531Z,602.00
2023-05-08T11:16:53.505Z,594.00
2023-05-08T11:17:53.542Z,591.00
2023-05-08T11:18:53.823Z,586.00
2023-05-08T11:19:53.633Z,582.00
2023-05-08T11:20:53.617Z,578.00
2023-05-08T11:21:53.632Z,570.00
2023-05-08T11:22:53.693Z,567.00
2023-05-08T11:23:53.795Z,564.00
2023-05-08T11:24:53.729Z,562.00
2023-05-08T11:25:53.811Z,558.00
2023-05-08T11:26:53.804Z,556.00
2023-05-08T11:27:53.830Z,550.00
2023-05-08T11:28:54.336Z,546.00
2023-05-08T11:29:53.903Z,544.00
2023-05-08T11:30:53.948Z,543.00
2023-05-08T11:31:54.027Z,540.00
2023-05-08T11:32:54.048Z,537.00
2023-05-08T11:33:54.067Z,533.00
2023-05-08T11:34:54.071Z,528.00
2023-05-08T11:35:54.172Z,525.00
2023-05-08T11:36:54.176Z,522.00
2023-05-08T11:37:54.228Z,518.00
2023-05-08T11:38:56.307Z,519.00
2023-05-08T11:39:54.306Z,520.00
2023-05-08T11:40:54.428Z,516.00
2023-05-08T11:41:54.360Z,516.00
2023-05-08T11:42:54.408Z,511.00
2023-05-08T11:43:54.454Z,518.00
2023-05-08T11:44:54.498Z,521.00
2023-05-08T11:45:54.548Z,521.00
2023-05-08T11:46:54.651Z,524.00
2023-05-08T11:47:54.715Z,521.00
2023-05-08T11:48:54.711Z,518.00
2023-05-08T11:49:54.769Z,518.00
2023-05-08T11:50:54.816Z,519.00
2023-05-08T11:51:54.865Z,519.00
2023-05-08T11:52:54.891Z,519.00
2023-05-08T11:53:55.330Z,515.00
2023-05-08T11:54:54.922Z,513.00
2023-05-08T11:55:55.023Z,514.00
2023-05-08T11:56:55.021Z,512.00
2023-05-08T11:57:55.043Z,513.00
2023-05-08T11:58:55.130Z,518.00
2023-05-08T11:59:55.133Z,520.00
2023-05-08T12:00:55.310Z,521.00
2023-05-08T12:02:06.834Z,519.00
2023-05-08T12:02:56.285Z,518.00
2023-05-08T12:03:55.369Z,517.00
2023-05-08T12:04:55.222Z,518.00
2023-05-08T12:05:55.247Z,515.00
2023-05-08T12:06:55.181Z,514.00
2023-05-08T12:07:55.193Z,510.00
2023-05-08T12:08:55.205Z,512.00
2023-05-08T12:09:55.191Z,511.00
2023-05-08T12:10:55.176Z,506.00
2023-05-08T12:11:55.179Z,508.00
2023-05-08T12:12:55.221Z,509.00
2023-05-08T12:13:55.262Z,510.00
2023-05-08T12:14:55.285Z,510.00
2023-05-08T12:15:55.322Z,507.00
2023-05-08T12:16:55.390Z,506.00
2023-05-08T12:17:55.440Z,504.00
2023-05-08T12:18:55.474Z,505.00
2023-05-08T12:19:55.481Z,504.00
2023-05-08T12:20:55.530Z,502.00
2023-05-08T12:21:55.555Z,497.00
2023-05-08T12:22:55.605Z,499.00
2023-05-08T12:23:55.680Z,500.00